createdAt,value
2019-05-07T15:31:13.297Z,21.48
2019-05-07T15:32:12.964Z,21.59
2019-05-07T15:34:05.765Z,21.57
2019-05-07T15:35:05.709Z,21.56
2019-05-07T15:36:58.567Z,21.56
2019-05-07T15:38:15.148Z,21.60
2019-05-07T15:39:15.085Z,21.53
2019-05-07T15:41:07.880Z,21.64
2019-05-07T15:42:07.804Z,21.64
2019-05-07T15:44:02.675Z,21.67
2019-05-07T15:45:02.338Z,21.69
2019-05-07T15:46:53.318Z,21.72
2019-05-07T15:47:53.259Z,21.67
2019-05-07T15:49:46.079Z,21.75
2019-05-07T15:50:46.007Z,21.78
2019-05-07T15:52:38.782Z,21.78
2019-05-07T15:53:38.750Z,21.75
2019-05-07T15:55:32.561Z,21.78
2019-05-07T15:56:32.542Z,21.85
2019-05-07T15:58:25.735Z,21.85
2019-05-07T15:59:25.716Z,22.04
2019-05-07T16:01:18.493Z,22.02
2019-05-07T16:02:18.431Z,21.98
2019-05-07T16:04:20.006Z,21.97
2019-05-07T16:05:12.249Z,22.02
2019-05-07T16:07:05.100Z,22.01
2019-05-07T16:08:04.230Z,22.06
2019-05-07T16:09:57.727Z,22.02
2019-05-07T16:10:57.662Z,22.04
2019-05-07T16:12:52.879Z,22.06
2019-05-07T16:13:52.147Z,21.99
2019-05-07T16:15:43.247Z,22.06
2019-05-07T16:16:43.182Z,22.07
2019-05-07T16:18:35.994Z,22.10
2019-05-07T16:19:35.932Z,22.09
2019-05-07T16:21:28.742Z,22.16
2019-05-07T16:22:28.690Z,22.16
2019-05-07T16:24:22.558Z,22.16
2019-05-07T16:25:22.497Z,22.19
2019-05-07T16:27:14.720Z,22.22
2019-05-07T16:28:14.662Z,22.19
2019-05-07T16:30:07.470Z,22.17
2019-05-07T16:31:07.390Z,22.25
2019-05-07T16:33:02.190Z,22.27
2019-05-07T16:34:02.402Z,22.16
2019-05-07T16:35:52.961Z,22.17
2019-05-07T16:36:53.002Z,22.19
2019-05-07T16:38:45.799Z,22.17
2019-05-07T16:39:45.649Z,22.28
2019-05-07T16:41:38.477Z,22.35
2019-05-07T16:42:38.398Z,22.35
2019-05-07T16:44:33.112Z,22.34
2019-05-07T16:45:31.622Z,22.37
2019-05-07T16:47:24.968Z,22.27
2019-05-07T16:48:24.805Z,22.37
2019-05-07T16:50:18.145Z,22.37
2019-05-07T16:51:17.980Z,22.43
2019-05-07T16:53:13.461Z,22.43
